METAR Data
IDs: Format: Raw Decoded Include TAF

Data at: 0638 UTC 01 Aug 2021

PAFR 010558Z AUTO 00000KT 9SM CLR 15/10 A3009 RMK AO2 SLP195 T01480102 10215 20148 53005 PNO $